sensor_id;sensor_type;location;lat;lon;timestamp;P1;durP1;ratioP1;P2;durP2;ratioP2
70199;SDS011;57587;55.688;37.600;2024-03-07T00:00:35;6.20;;;4.73;;
70199;SDS011;57587;55.688;37.600;2024-03-07T00:03:03;10.05;;;4.38;;
70199;SDS011;57587;55.688;37.600;2024-03-07T00:05:30;6.88;;;4.75;;
70199;SDS011;57587;55.688;37.600;2024-03-07T00:07:57;8.10;;;3.95;;
70199;SDS011;57587;55.688;37.600;2024-03-07T00:10:26;6.53;;;3.90;;
70199;SDS011;57587;55.688;37.600;2024-03-07T00:12:53;7.97;;;3.50;;
70199;SDS011;57587;55.688;37.600;2024-03-07T00:15:20;9.95;;;3.85;;
70199;SDS011;57587;55.688;37.600;2024-03-07T00:17:47;6.45;;;3.97;;
70199;SDS011;57587;55.688;37.600;2024-03-07T00:20:15;8.35;;;3.50;;
70199;SDS011;57587;55.688;37.600;2024-03-07T00:22:47;5.15;;;3.55;;
70199;SDS011;57587;55.688;37.600;2024-03-07T00:25:14;6.83;;;3.67;;
70199;SDS011;57587;55.688;37.600;2024-03-07T00:27:46;5.85;;;3.25;;
70199;SDS011;57587;55.688;37.600;2024-03-07T00:30:14;6.28;;;3.80;;
70199;SDS011;57587;55.688;37.600;2024-03-07T00:32:48;9.20;;;3.38;;
70199;SDS011;57587;55.688;37.600;2024-03-07T00:35:16;7.03;;;3.30;;
70199;SDS011;57587;55.688;37.600;2024-03-07T00:37:43;8.00;;;4.17;;
70199;SDS011;57587;55.688;37.600;2024-03-07T00:40:11;7.85;;;3.90;;
70199;SDS011;57587;55.688;37.600;2024-03-07T00:42:38;8.25;;;3.53;;
70199;SDS011;57587;55.688;37.600;2024-03-07T00:45:05;6.85;;;3.42;;
70199;SDS011;57587;55.688;37.600;2024-03-07T00:47:33;14.40;;;3.35;;
70199;SDS011;57587;55.688;37.600;2024-03-07T00:50:01;10.30;;;3.90;;
70199;SDS011;57587;55.688;37.600;2024-03-07T00:52:30;6.28;;;4.20;;
70199;SDS011;57587;55.688;37.600;2024-03-07T00:54:59;6.88;;;3.70;;
70199;SDS011;57587;55.688;37.600;2024-03-07T00:57:27;7.65;;;3.65;;
70199;SDS011;57587;55.688;37.600;2024-03-07T00:59:54;5.90;;;4.05;;
70199;SDS011;57587;55.688;37.600;2024-03-07T01:02:22;4.10;;;3.10;;
70199;SDS011;57587;55.688;37.600;2024-03-07T01:04:49;6.07;;;3.88;;
70199;SDS011;57587;55.688;37.600;2024-03-07T01:07:16;9.05;;;3.60;;
70199;SDS011;57587;55.688;37.600;2024-03-07T01:09:44;6.53;;;3.20;;
70199;SDS011;57587;55.688;37.600;2024-03-07T01:12:11;6.28;;;3.72;;
70199;SDS011;57587;55.688;37.600;2024-03-07T01:14:39;5.33;;;3.53;;
70199;SDS011;57587;55.688;37.600;2024-03-07T01:17:06;7.47;;;3.90;;
70199;SDS011;57587;55.688;37.600;2024-03-07T01:19:36;9.82;;;3.90;;
70199;SDS011;57587;55.688;37.600;2024-03-07T01:22:04;7.65;;;3.88;;
70199;SDS011;57587;55.688;37.600;2024-03-07T01:24:32;8.13;;;3.63;;
70199;SDS011;57587;55.688;37.600;2024-03-07T01:27:00;8.80;;;3.60;;
70199;SDS011;57587;55.688;37.600;2024-03-07T01:29:27;8.98;;;4.20;;
70199;SDS011;57587;55.688;37.600;2024-03-07T01:31:54;7.30;;;3.92;;
70199;SDS011;57587;55.688;37.600;2024-03-07T01:34:22;7.18;;;3.80;;
70199;SDS011;57587;55.688;37.600;2024-03-07T01:36:49;7.38;;;4.15;;
70199;SDS011;57587;55.688;37.600;2024-03-07T01:39:16;8.37;;;3.40;;
70199;SDS011;57587;55.688;37.600;2024-03-07T01:41:43;12.95;;;4.00;;
70199;SDS011;57587;55.688;37.600;2024-03-07T01:44:10;8.05;;;4.00;;
70199;SDS011;57587;55.688;37.600;2024-03-07T01:46:38;8.32;;;4.50;;
70199;SDS011;57587;55.688;37.600;2024-03-07T01:49:05;8.80;;;3.83;;
70199;SDS011;57587;55.688;37.600;2024-03-07T01:51:34;9.73;;;4.50;;
70199;SDS011;57587;55.688;37.600;2024-03-07T01:54:06;8.52;;;3.47;;
70199;SDS011;57587;55.688;37.600;2024-03-07T01:56:36;8.98;;;4.63;;
70199;SDS011;57587;55.688;37.600;2024-03-07T01:59:04;8.85;;;3.78;;
70199;SDS011;57587;55.688;37.600;2024-03-07T02:01:34;6.07;;;3.47;;
70199;SDS011;57587;55.688;37.600;2024-03-07T02:04:03;6.67;;;3.20;;
70199;SDS011;57587;55.688;37.600;2024-03-07T02:06:32;10.40;;;3.97;;
70199;SDS011;57587;55.688;37.600;2024-03-07T02:09:00;8.93;;;3.58;;
70199;SDS011;57587;55.688;37.600;2024-03-07T02:11:29;7.25;;;3.65;;
70199;SDS011;57587;55.688;37.600;2024-03-07T02:13:57;17.58;;;3.90;;
70199;SDS011;57587;55.688;37.600;2024-03-07T02:16:25;6.10;;;3.40;;
70199;SDS011;57587;55.688;37.600;2024-03-07T02:19:13;5.53;;;3.13;;
70199;SDS011;57587;55.688;37.600;2024-03-07T02:21:42;6.72;;;3.90;;
70199;SDS011;57587;55.688;37.600;2024-03-07T02:24:09;8.32;;;3.58;;
70199;SDS011;57587;55.688;37.600;2024-03-07T02:26:36;4.22;;;3.15;;
70199;SDS011;57587;55.688;37.600;2024-03-07T02:29:03;5.40;;;3.50;;
70199;SDS011;57587;55.688;37.600;2024-03-07T02:31:30;8.10;;;4.28;;
70199;SDS011;57587;55.688;37.600;2024-03-07T02:34:05;7.05;;;3.47;;
70199;SDS011;57587;55.688;37.600;2024-03-07T02:36:34;6.68;;;3.50;;
70199;SDS011;57587;55.688;37.600;2024-03-07T02:39:01;5.97;;;2.92;;
70199;SDS011;57587;55.688;37.600;2024-03-07T02:41:28;4.97;;;2.97;;
70199;SDS011;57587;55.688;37.600;2024-03-07T02:43:56;7.50;;;2.92;;
70199;SDS011;57587;55.688;37.600;2024-03-07T02:46:23;7.65;;;3.40;;
70199;SDS011;57587;55.688;37.600;2024-03-07T02:48:50;5.88;;;3.22;;
70199;SDS011;57587;55.688;37.600;2024-03-07T02:51:17;5.05;;;3.00;;
70199;SDS011;57587;55.688;37.600;2024-03-07T02:53:44;4.53;;;3.07;;
70199;SDS011;57587;55.688;37.600;2024-03-07T02:56:11;5.80;;;3.30;;
70199;SDS011;57587;55.688;37.600;2024-03-07T02:58:38;7.57;;;3.20;;
70199;SDS011;57587;55.688;37.600;2024-03-07T03:01:06;5.28;;;3.42;;
70199;SDS011;57587;55.688;37.600;2024-03-07T03:03:33;9.82;;;3.92;;
70199;SDS011;57587;55.688;37.600;2024-03-07T03:06:00;8.73;;;3.50;;
70199;SDS011;57587;55.688;37.600;2024-03-07T03:08:29;8.02;;;3.53;;
70199;SDS011;57587;55.688;37.600;2024-03-07T03:10:56;6.28;;;2.85;;
70199;SDS011;57587;55.688;37.600;2024-03-07T03:13:23;5.60;;;2.88;;
70199;SDS011;57587;55.688;37.600;2024-03-07T03:15:51;3.95;;;2.80;;
70199;SDS011;57587;55.688;37.600;2024-03-07T03:18:18;7.03;;;3.37;;
70199;SDS011;57587;55.688;37.600;2024-03-07T03:20:46;5.38;;;2.72;;
70199;SDS011;57587;55.688;37.600;2024-03-07T03:23:15;5.28;;;2.92;;
70199;SDS011;57587;55.688;37.600;2024-03-07T03:25:47;8.45;;;3.75;;
70199;SDS011;57587;55.688;37.600;2024-03-07T03:28:16;5.93;;;3.22;;
70199;SDS011;57587;55.688;37.600;2024-03-07T03:30:47;8.53;;;3.87;;
70199;SDS011;57587;55.688;37.600;2024-03-07T03:33:15;6.30;;;3.42;;
70199;SDS011;57587;55.688;37.600;2024-03-07T03:35:42;6.80;;;3.88;;
70199;SDS011;57587;55.688;37.600;2024-03-07T03:38:11;15.73;;;9.05;;
70199;SDS011;57587;55.688;37.600;2024-03-07T03:40:38;9.15;;;6.40;;
70199;SDS011;57587;55.688;37.600;2024-03-07T03:43:07;13.17;;;6.87;;
70199;SDS011;57587;55.688;37.600;2024-03-07T03:45:34;8.40;;;3.63;;
70199;SDS011;57587;55.688;37.600;2024-03-07T03:48:02;6.07;;;3.60;;
70199;SDS011;57587;55.688;37.600;2024-03-07T03:50:30;9.68;;;3.85;;
70199;SDS011;57587;55.688;37.600;2024-03-07T03:52:58;13.18;;;4.38;;
70199;SDS011;57587;55.688;37.600;2024-03-07T03:55:28;7.00;;;3.70;;
70199;SDS011;57587;55.688;37.600;2024-03-07T03:57:55;7.18;;;3.58;;
70199;SDS011;57587;55.688;37.600;2024-03-07T04:00:22;14.50;;;5.53;;
70199;SDS011;57587;55.688;37.600;2024-03-07T04:02:50;7.93;;;4.85;;
70199;SDS011;57587;55.688;37.600;2024-03-07T04:05:19;8.75;;;3.75;;
70199;SDS011;57587;55.688;37.600;2024-03-07T04:07:47;8.73;;;3.90;;
70199;SDS011;57587;55.688;37.600;2024-03-07T04:10:15;9.10;;;4.38;;
70199;SDS011;57587;55.688;37.600;2024-03-07T04:12:45;7.68;;;3.90;;
70199;SDS011;57587;55.688;37.600;2024-03-07T04:15:14;11.98;;;3.90;;
70199;SDS011;57587;55.688;37.600;2024-03-07T04:17:46;9.57;;;4.68;;
70199;SDS011;57587;55.688;37.600;2024-03-07T04:20:15;9.00;;;3.60;;
70199;SDS011;57587;55.688;37.600;2024-03-07T04:22:46;9.45;;;4.60;;
70199;SDS011;57587;55.688;37.600;2024-03-07T04:25:15;10.15;;;3.83;;
70199;SDS011;57587;55.688;37.600;2024-03-07T04:27:43;6.72;;;3.85;;
70199;SDS011;57587;55.688;37.600;2024-03-07T04:30:11;7.43;;;3.97;;
70199;SDS011;57587;55.688;37.600;2024-03-07T04:32:38;7.90;;;3.77;;
70199;SDS011;57587;55.688;37.600;2024-03-07T04:35:06;7.85;;;4.15;;
70199;SDS011;57587;55.688;37.600;2024-03-07T04:37:35;5.45;;;3.60;;
70199;SDS011;57587;55.688;37.600;2024-03-07T04:40:05;7.93;;;3.63;;
70199;SDS011;57587;55.688;37.600;2024-03-07T04:42:43;9.07;;;4.20;;
70199;SDS011;57587;55.688;37.600;2024-03-07T04:45:18;5.73;;;4.50;;
70199;SDS011;57587;55.688;37.600;2024-03-07T04:47:46;11.38;;;4.93;;
70199;SDS011;57587;55.688;37.600;2024-03-07T04:50:15;12.25;;;4.55;;
70199;SDS011;57587;55.688;37.600;2024-03-07T04:52:47;11.65;;;4.35;;
70199;SDS011;57587;55.688;37.600;2024-03-07T04:55:16;9.77;;;4.32;;
70199;SDS011;57587;55.688;37.600;2024-03-07T04:57:44;9.13;;;4.43;;
70199;SDS011;57587;55.688;37.600;2024-03-07T05:00:11;12.13;;;4.43;;
70199;SDS011;57587;55.688;37.600;2024-03-07T05:02:45;7.97;;;4.82;;
70199;SDS011;57587;55.688;37.600;2024-03-07T05:05:14;8.45;;;4.18;;
70199;SDS011;57587;55.688;37.600;2024-03-07T05:07:41;7.07;;;4.40;;
70199;SDS011;57587;55.688;37.600;2024-03-07T05:10:09;7.43;;;4.17;;
70199;SDS011;57587;55.688;37.600;2024-03-07T05:12:36;8.93;;;3.97;;
70199;SDS011;57587;55.688;37.600;2024-03-07T05:15:05;10.77;;;4.75;;
70199;SDS011;57587;55.688;37.600;2024-03-07T05:17:33;12.15;;;4.10;;
70199;SDS011;57587;55.688;37.600;2024-03-07T05:20:08;13.00;;;4.18;;
70199;SDS011;57587;55.688;37.600;2024-03-07T05:22:42;8.17;;;4.53;;
70199;SDS011;57587;55.688;37.600;2024-03-07T05:25:18;10.65;;;5.38;;
70199;SDS011;57587;55.688;37.600;2024-03-07T05:27:46;10.40;;;4.90;;
70199;SDS011;57587;55.688;37.600;2024-03-07T05:30:13;10.05;;;4.60;;
70199;SDS011;57587;55.688;37.600;2024-03-07T05:32:43;9.48;;;5.30;;
70199;SDS011;57587;55.688;37.600;2024-03-07T05:35:10;12.77;;;4.83;;
70199;SDS011;57587;55.688;37.600;2024-03-07T05:37:38;10.70;;;5.35;;
70199;SDS011;57587;55.688;37.600;2024-03-07T05:40:09;9.48;;;4.85;;
70199;SDS011;57587;55.688;37.600;2024-03-07T05:42:36;8.77;;;5.47;;
70199;SDS011;57587;55.688;37.600;2024-03-07T05:45:03;9.80;;;5.45;;
70199;SDS011;57587;55.688;37.600;2024-03-07T05:47:34;8.60;;;5.13;;
70199;SDS011;57587;55.688;37.600;2024-03-07T05:50:01;9.27;;;6.00;;
70199;SDS011;57587;55.688;37.600;2024-03-07T05:52:30;10.50;;;5.72;;
70199;SDS011;57587;55.688;37.600;2024-03-07T05:54:57;7.78;;;5.22;;
70199;SDS011;57587;55.688;37.600;2024-03-07T05:57:24;8.15;;;5.57;;
70199;SDS011;57587;55.688;37.600;2024-03-07T05:59:51;8.65;;;5.13;;
70199;SDS011;57587;55.688;37.600;2024-03-07T06:02:19;9.25;;;5.75;;
70199;SDS011;57587;55.688;37.600;2024-03-07T06:04:47;13.45;;;5.28;;
70199;SDS011;57587;55.688;37.600;2024-03-07T06:07:14;9.75;;;5.50;;
70199;SDS011;57587;55.688;37.600;2024-03-07T06:09:41;12.00;;;5.43;;
70199;SDS011;57587;55.688;37.600;2024-03-07T06:12:10;10.52;;;5.30;;
70199;SDS011;57587;55.688;37.600;2024-03-07T06:14:49;11.63;;;5.35;;
70199;SDS011;57587;55.688;37.600;2024-03-07T06:17:16;14.15;;;5.60;;
70199;SDS011;57587;55.688;37.600;2024-03-07T06:19:48;9.73;;;5.70;;
70199;SDS011;57587;55.688;37.600;2024-03-07T06:22:15;14.50;;;6.13;;
70199;SDS011;57587;55.688;37.600;2024-03-07T06:24:43;12.20;;;6.07;;
70199;SDS011;57587;55.688;37.600;2024-03-07T06:27:10;15.07;;;6.75;;
70199;SDS011;57587;55.688;37.600;2024-03-07T06:29:53;14.80;;;6.90;;
70199;SDS011;57587;55.688;37.600;2024-03-07T06:32:20;9.63;;;6.30;;
70199;SDS011;57587;55.688;37.600;2024-03-07T06:34:49;14.57;;;6.38;;
70199;SDS011;57587;55.688;37.600;2024-03-07T06:37:16;13.48;;;6.47;;
70199;SDS011;57587;55.688;37.600;2024-03-07T06:39:46;13.23;;;6.50;;
70199;SDS011;57587;55.688;37.600;2024-03-07T06:42:14;10.00;;;5.90;;
70199;SDS011;57587;55.688;37.600;2024-03-07T06:44:42;11.48;;;7.05;;
70199;SDS011;57587;55.688;37.600;2024-03-07T06:47:10;10.30;;;6.10;;
70199;SDS011;57587;55.688;37.600;2024-03-07T06:49:37;11.15;;;7.05;;
70199;SDS011;57587;55.688;37.600;2024-03-07T06:52:04;13.70;;;6.60;;
70199;SDS011;57587;55.688;37.600;2024-03-07T06:54:31;12.70;;;6.85;;
70199;SDS011;57587;55.688;37.600;2024-03-07T06:56:58;9.88;;;6.68;;
70199;SDS011;57587;55.688;37.600;2024-03-07T06:59:26;12.63;;;6.18;;
70199;SDS011;57587;55.688;37.600;2024-03-07T07:01:53;13.85;;;6.20;;
70199;SDS011;57587;55.688;37.600;2024-03-07T07:04:20;11.80;;;6.00;;
70199;SDS011;57587;55.688;37.600;2024-03-07T07:07:03;12.57;;;6.38;;
70199;SDS011;57587;55.688;37.600;2024-03-07T07:10:16;11.32;;;5.60;;
70199;SDS011;57587;55.688;37.600;2024-03-07T07:13:29;13.10;;;5.93;;
70199;SDS011;57587;55.688;37.600;2024-03-07T07:16:00;11.68;;;6.28;;
70199;SDS011;57587;55.688;37.600;2024-03-07T07:18:28;47.53;;;7.37;;
70199;SDS011;57587;55.688;37.600;2024-03-07T07:20:57;25.77;;;6.45;;
70199;SDS011;57587;55.688;37.600;2024-03-07T07:23:25;13.68;;;5.88;;
70199;SDS011;57587;55.688;37.600;2024-03-07T07:25:54;14.75;;;5.72;;
70199;SDS011;57587;55.688;37.600;2024-03-07T07:28:24;13.30;;;6.70;;
70199;SDS011;57587;55.688;37.600;2024-03-07T07:31:20;10.70;;;6.37;;
70199;SDS011;57587;55.688;37.600;2024-03-07T07:34:07;10.85;;;6.10;;
70199;SDS011;57587;55.688;37.600;2024-03-07T07:36:34;16.27;;;6.00;;
70199;SDS011;57587;55.688;37.600;2024-03-07T07:39:01;11.43;;;5.93;;
70199;SDS011;57587;55.688;37.600;2024-03-07T07:41:30;13.13;;;6.00;;
70199;SDS011;57587;55.688;37.600;2024-03-07T07:43:58;13.27;;;6.23;;
70199;SDS011;57587;55.688;37.600;2024-03-07T07:46:25;11.85;;;5.60;;
70199;SDS011;57587;55.688;37.600;2024-03-07T07:48:52;9.95;;;5.45;;
70199;SDS011;57587;55.688;37.600;2024-03-07T07:51:20;12.00;;;5.47;;
70199;SDS011;57587;55.688;37.600;2024-03-07T07:53:47;12.45;;;5.75;;
70199;SDS011;57587;55.688;37.600;2024-03-07T07:56:14;13.90;;;6.10;;
70199;SDS011;57587;55.688;37.600;2024-03-07T07:58:41;11.52;;;5.43;;
70199;SDS011;57587;55.688;37.600;2024-03-07T08:01:09;10.70;;;5.75;;
70199;SDS011;57587;55.688;37.600;2024-03-07T08:03:37;8.23;;;5.03;;
70199;SDS011;57587;55.688;37.600;2024-03-07T08:06:04;13.23;;;5.25;;
70199;SDS011;57587;55.688;37.600;2024-03-07T08:08:31;12.40;;;5.50;;
70199;SDS011;57587;55.688;37.600;2024-03-07T08:10:58;7.88;;;4.63;;
70199;SDS011;57587;55.688;37.600;2024-03-07T08:13:26;12.27;;;4.78;;
70199;SDS011;57587;55.688;37.600;2024-03-07T08:15:53;10.07;;;5.10;;
70199;SDS011;57587;55.688;37.600;2024-03-07T08:18:20;11.48;;;5.18;;
70199;SDS011;57587;55.688;37.600;2024-03-07T08:20:48;12.07;;;4.90;;
70199;SDS011;57587;55.688;37.600;2024-03-07T08:23:20;10.70;;;5.63;;
70199;SDS011;57587;55.688;37.600;2024-03-07T08:25:47;10.18;;;5.05;;
70199;SDS011;57587;55.688;37.600;2024-03-07T08:28:14;10.80;;;5.20;;
70199;SDS011;57587;55.688;37.600;2024-03-07T08:30:41;9.57;;;5.07;;
70199;SDS011;57587;55.688;37.600;2024-03-07T08:33:08;11.97;;;5.03;;
70199;SDS011;57587;55.688;37.600;2024-03-07T08:35:36;9.20;;;5.38;;
70199;SDS011;57587;55.688;37.600;2024-03-07T08:38:04;8.00;;;4.93;;
70199;SDS011;57587;55.688;37.600;2024-03-07T08:40:31;11.70;;;5.60;;
70199;SDS011;57587;55.688;37.600;2024-03-07T08:43:00;11.15;;;5.10;;
70199;SDS011;57587;55.688;37.600;2024-03-07T08:45:28;9.83;;;4.73;;
70199;SDS011;57587;55.688;37.600;2024-03-07T08:47:56;10.88;;;4.95;;
70199;SDS011;57587;55.688;37.600;2024-03-07T08:50:25;10.50;;;5.00;;
70199;SDS011;57587;55.688;37.600;2024-03-07T08:52:55;8.25;;;4.97;;
70199;SDS011;57587;55.688;37.600;2024-03-07T08:55:23;12.90;;;5.10;;
70199;SDS011;57587;55.688;37.600;2024-03-07T08:57:53;7.57;;;4.83;;
70199;SDS011;57587;55.688;37.600;2024-03-07T09:00:21;14.88;;;4.88;;
70199;SDS011;57587;55.688;37.600;2024-03-07T09:02:52;7.93;;;4.15;;
70199;SDS011;57587;55.688;37.600;2024-03-07T09:05:29;11.25;;;4.80;;
70199;SDS011;57587;55.688;37.600;2024-03-07T09:08:01;15.07;;;4.75;;
70199;SDS011;57587;55.688;37.600;2024-03-07T09:10:30;7.50;;;4.47;;
70199;SDS011;57587;55.688;37.600;2024-03-07T09:12:58;6.88;;;4.35;;
70199;SDS011;57587;55.688;37.600;2024-03-07T09:15:25;10.40;;;4.72;;
70199;SDS011;57587;55.688;37.600;2024-03-07T09:17:54;10.30;;;4.70;;
70199;SDS011;57587;55.688;37.600;2024-03-07T09:20:22;14.43;;;5.93;;
70199;SDS011;57587;55.688;37.600;2024-03-07T09:22:51;13.00;;;5.47;;
70199;SDS011;57587;55.688;37.600;2024-03-07T09:25:22;12.60;;;5.50;;
70199;SDS011;57587;55.688;37.600;2024-03-07T09:27:50;14.05;;;6.22;;
70199;SDS011;57587;55.688;37.600;2024-03-07T09:30:17;11.80;;;5.65;;
70199;SDS011;57587;55.688;37.600;2024-03-07T09:32:51;12.32;;;6.30;;
70199;SDS011;57587;55.688;37.600;2024-03-07T09:35:18;9.83;;;5.23;;
70199;SDS011;57587;55.688;37.600;2024-03-07T09:37:45;10.05;;;5.28;;
70199;SDS011;57587;55.688;37.600;2024-03-07T09:40:13;9.90;;;4.88;;
70199;SDS011;57587;55.688;37.600;2024-03-07T09:42:47;7.13;;;4.63;;
70199;SDS011;57587;55.688;37.600;2024-03-07T09:45:19;8.68;;;5.13;;
70199;SDS011;57587;55.688;37.600;2024-03-07T09:47:50;9.07;;;4.77;;
70199;SDS011;57587;55.688;37.600;2024-03-07T09:50:20;10.68;;;4.53;;
70199;SDS011;57587;55.688;37.600;2024-03-07T09:52:51;8.20;;;3.78;;
70199;SDS011;57587;55.688;37.600;2024-03-07T09:55:21;10.60;;;4.00;;
70199;SDS011;57587;55.688;37.600;2024-03-07T09:57:53;10.55;;;4.70;;
70199;SDS011;57587;55.688;37.600;2024-03-07T10:00:24;11.10;;;4.60;;
70199;SDS011;57587;55.688;37.600;2024-03-07T10:03:15;7.53;;;4.63;;
70199;SDS011;57587;55.688;37.600;2024-03-07T10:05:44;7.63;;;4.78;;
70199;SDS011;57587;55.688;37.600;2024-03-07T10:08:12;8.05;;;4.50;;
70199;SDS011;57587;55.688;37.600;2024-03-07T10:10:40;7.07;;;4.25;;
70199;SDS011;57587;55.688;37.600;2024-03-07T10:13:07;7.63;;;4.97;;
70199;SDS011;57587;55.688;37.600;2024-03-07T10:15:36;8.65;;;4.53;;
70199;SDS011;57587;55.688;37.600;2024-03-07T10:18:06;9.27;;;4.57;;
70199;SDS011;57587;55.688;37.600;2024-03-07T10:20:36;9.45;;;4.70;;
70199;SDS011;57587;55.688;37.600;2024-03-07T10:23:03;7.25;;;4.57;;
70199;SDS011;57587;55.688;37.600;2024-03-07T10:25:31;6.83;;;4.17;;
70199;SDS011;57587;55.688;37.600;2024-03-07T10:27:58;8.25;;;4.28;;
70199;SDS011;57587;55.688;37.600;2024-03-07T10:30:27;8.40;;;4.20;;
70199;SDS011;57587;55.688;37.600;2024-03-07T10:32:56;10.20;;;4.78;;
70199;SDS011;57587;55.688;37.600;2024-03-07T10:35:26;8.93;;;4.50;;
70199;SDS011;57587;55.688;37.600;2024-03-07T10:37:56;12.50;;;4.17;;
70199;SDS011;57587;55.688;37.600;2024-03-07T10:40:28;9.70;;;4.38;;
70199;SDS011;57587;55.688;37.600;2024-03-07T10:42:58;10.88;;;3.88;;
70199;SDS011;57587;55.688;37.600;2024-03-07T10:45:30;7.13;;;3.78;;
70199;SDS011;57587;55.688;37.600;2024-03-07T10:48:02;6.57;;;4.63;;
70199;SDS011;57587;55.688;37.600;2024-03-07T10:50:38;6.13;;;4.27;;
70199;SDS011;57587;55.688;37.600;2024-03-07T11:04:31;8.50;;;4.35;;
70199;SDS011;57587;55.688;37.600;2024-03-07T11:06:59;7.70;;;4.05;;
70199;SDS011;57587;55.688;37.600;2024-03-07T11:09:27;7.65;;;4.55;;
70199;SDS011;57587;55.688;37.600;2024-03-07T11:11:56;9.45;;;4.22;;
70199;SDS011;57587;55.688;37.600;2024-03-07T11:14:24;6.60;;;3.70;;
70199;SDS011;57587;55.688;37.600;2024-03-07T11:16:52;8.10;;;4.65;;
70199;SDS011;57587;55.688;37.600;2024-03-07T11:19:24;5.95;;;3.72;;
70199;SDS011;57587;55.688;37.600;2024-03-07T11:21:54;7.60;;;3.40;;
70199;SDS011;57587;55.688;37.600;2024-03-07T11:24:31;5.50;;;3.53;;
70199;SDS011;57587;55.688;37.600;2024-03-07T11:27:02;7.85;;;3.30;;
70199;SDS011;57587;55.688;37.600;2024-03-07T11:32:14;6.75;;;3.60;;
70199;SDS011;57587;55.688;37.600;2024-03-07T11:34:44;8.25;;;3.38;;
70199;SDS011;57587;55.688;37.600;2024-03-07T11:37:18;5.97;;;3.35;;
70199;SDS011;57587;55.688;37.600;2024-03-07T11:42:52;8.35;;;3.60;;
70199;SDS011;57587;55.688;37.600;2024-03-07T11:45:21;9.73;;;4.35;;
70199;SDS011;57587;55.688;37.600;2024-03-07T11:47:56;5.70;;;3.17;;
70199;SDS011;57587;55.688;37.600;2024-03-07T11:50:27;7.90;;;3.33;;
70199;SDS011;57587;55.688;37.600;2024-03-07T11:52:55;7.50;;;3.50;;
70199;SDS011;57587;55.688;37.600;2024-03-07T11:55:23;7.55;;;3.67;;
70199;SDS011;57587;55.688;37.600;2024-03-07T11:57:50;7.72;;;3.97;;
70199;SDS011;57587;55.688;37.600;2024-03-07T12:00:18;8.30;;;3.72;;
70199;SDS011;57587;55.688;37.600;2024-03-07T12:02:46;6.65;;;3.90;;
70199;SDS011;57587;55.688;37.600;2024-03-07T12:05:15;6.70;;;3.50;;
70199;SDS011;57587;55.688;37.600;2024-03-07T12:07:44;9.95;;;3.78;;
70199;SDS011;57587;55.688;37.600;2024-03-07T12:10:11;5.60;;;3.38;;
70199;SDS011;57587;55.688;37.600;2024-03-07T12:12:38;11.52;;;3.75;;
70199;SDS011;57587;55.688;37.600;2024-03-07T12:15:06;9.82;;;3.42;;
70199;SDS011;57587;55.688;37.600;2024-03-07T12:17:42;6.67;;;3.63;;
70199;SDS011;57587;55.688;37.600;2024-03-07T12:20:10;6.72;;;3.55;;
70199;SDS011;57587;55.688;37.600;2024-03-07T12:22:58;7.50;;;3.53;;
70199;SDS011;57587;55.688;37.600;2024-03-07T12:25:30;5.00;;;3.20;;
70199;SDS011;57587;55.688;37.600;2024-03-07T12:30:48;5.67;;;2.73;;
70199;SDS011;57587;55.688;37.600;2024-03-07T12:33:17;6.25;;;2.80;;
70199;SDS011;57587;55.688;37.600;2024-03-07T12:35:46;5.00;;;2.55;;
70199;SDS011;57587;55.688;37.600;2024-03-07T12:38:17;7.82;;;4.20;;
70199;SDS011;57587;55.688;37.600;2024-03-07T12:41:02;5.55;;;3.42;;
70199;SDS011;57587;55.688;37.600;2024-03-07T12:43:35;7.63;;;3.77;;
70199;SDS011;57587;55.688;37.600;2024-03-07T12:46:04;6.63;;;2.83;;
70199;SDS011;57587;55.688;37.600;2024-03-07T12:48:32;8.65;;;3.50;;
70199;SDS011;57587;55.688;37.600;2024-03-07T12:50:59;10.30;;;4.03;;
70199;SDS011;57587;55.688;37.600;2024-03-07T12:53:28;8.60;;;4.15;;
70199;SDS011;57587;55.688;37.600;2024-03-07T12:55:56;13.43;;;6.37;;
70199;SDS011;57587;55.688;37.600;2024-03-07T12:58:23;8.95;;;4.05;;
70199;SDS011;57587;55.688;37.600;2024-03-07T13:00:53;9.52;;;4.22;;
70199;SDS011;57587;55.688;37.600;2024-03-07T13:03:23;8.55;;;3.80;;
70199;SDS011;57587;55.688;37.600;2024-03-07T13:05:58;6.32;;;3.50;;
70199;SDS011;57587;55.688;37.600;2024-03-07T13:08:29;5.97;;;3.00;;
70199;SDS011;57587;55.688;37.600;2024-03-07T13:10:57;7.72;;;2.85;;
70199;SDS011;57587;55.688;37.600;2024-03-07T13:13:27;7.93;;;3.60;;
70199;SDS011;57587;55.688;37.600;2024-03-07T13:15:56;9.65;;;3.90;;
70199;SDS011;57587;55.688;37.600;2024-03-07T13:18:25;5.70;;;3.33;;
70199;SDS011;57587;55.688;37.600;2024-03-07T13:20:52;7.87;;;3.97;;
70199;SDS011;57587;55.688;37.600;2024-03-07T13:23:20;6.50;;;3.20;;
70199;SDS011;57587;55.688;37.600;2024-03-07T13:25:47;6.30;;;3.58;;
70199;SDS011;57587;55.688;37.600;2024-03-07T13:28:16;5.60;;;3.30;;
70199;SDS011;57587;55.688;37.600;2024-03-07T13:30:45;8.30;;;3.20;;
70199;SDS011;57587;55.688;37.600;2024-03-07T13:33:16;8.07;;;2.90;;
70199;SDS011;57587;55.688;37.600;2024-03-07T13:35:46;8.13;;;3.50;;
70199;SDS011;57587;55.688;37.600;2024-03-07T13:38:13;7.28;;;2.70;;
70199;SDS011;57587;55.688;37.600;2024-03-07T13:40:42;7.85;;;3.10;;
70199;SDS011;57587;55.688;37.600;2024-03-07T13:43:09;9.57;;;3.40;;
70199;SDS011;57587;55.688;37.600;2024-03-07T13:45:36;7.17;;;2.87;;
70199;SDS011;57587;55.688;37.600;2024-03-07T13:48:08;8.77;;;2.63;;
70199;SDS011;57587;55.688;37.600;2024-03-07T13:50:37;12.52;;;2.83;;
70199;SDS011;57587;55.688;37.600;2024-03-07T13:53:23;7.00;;;2.75;;
70199;SDS011;57587;55.688;37.600;2024-03-07T14:10:53;9.02;;;3.35;;
70199;SDS011;57587;55.688;37.600;2024-03-07T14:19:17;6.80;;;2.65;;
70199;SDS011;57587;55.688;37.600;2024-03-07T14:30:52;8.57;;;2.83;;
70199;SDS011;57587;55.688;37.600;2024-03-07T14:33:23;5.68;;;2.47;;
70199;SDS011;57587;55.688;37.600;2024-03-07T14:35:58;5.90;;;3.03;;
70199;SDS011;57587;55.688;37.600;2024-03-07T14:38:27;6.88;;;3.33;;
70199;SDS011;57587;55.688;37.600;2024-03-07T14:41:09;9.17;;;4.23;;
70199;SDS011;57587;55.688;37.600;2024-03-07T14:43:39;7.10;;;3.25;;
70199;SDS011;57587;55.688;37.600;2024-03-07T14:46:08;4.85;;;3.13;;
70199;SDS011;57587;55.688;37.600;2024-03-07T14:48:36;6.45;;;2.78;;
70199;SDS011;57587;55.688;37.600;2024-03-07T14:51:04;9.63;;;4.60;;
70199;SDS011;57587;55.688;37.600;2024-03-07T14:53:40;12.07;;;4.53;;
70199;SDS011;57587;55.688;37.600;2024-03-07T14:56:08;8.48;;;3.72;;
70199;SDS011;57587;55.688;37.600;2024-03-07T14:58:37;9.30;;;3.25;;
70199;SDS011;57587;55.688;37.600;2024-03-07T15:01:05;11.07;;;3.45;;
70199;SDS011;57587;55.688;37.600;2024-03-07T15:03:33;8.73;;;3.42;;
70199;SDS011;57587;55.688;37.600;2024-03-07T15:06:01;7.57;;;3.00;;
70199;SDS011;57587;55.688;37.600;2024-03-07T15:08:30;10.43;;;4.40;;
70199;SDS011;57587;55.688;37.600;2024-03-07T15:10:59;6.28;;;3.42;;
70199;SDS011;57587;55.688;37.600;2024-03-07T15:13:40;6.15;;;3.30;;
70199;SDS011;57587;55.688;37.600;2024-03-07T15:16:07;9.23;;;3.35;;
70199;SDS011;57587;55.688;37.600;2024-03-07T15:18:43;12.80;;;2.97;;
70199;SDS011;57587;55.688;37.600;2024-03-07T15:21:10;6.25;;;2.78;;
70199;SDS011;57587;55.688;37.600;2024-03-07T15:23:45;8.40;;;3.30;;
70199;SDS011;57587;55.688;37.600;2024-03-07T15:26:12;5.82;;;2.75;;
70199;SDS011;57587;55.688;37.600;2024-03-07T15:28:42;7.65;;;3.33;;
70199;SDS011;57587;55.688;37.600;2024-03-07T15:31:09;8.67;;;3.87;;
70199;SDS011;57587;55.688;37.600;2024-03-07T15:33:40;8.65;;;3.60;;